Impacts METAR Board
IDs:

KMCO - Orlando Intl, FL, US

Updated at: 0100 UTC 31 May 2020
Potential Impact None Slight Moderate High
Time 30/13Z 30/14Z 30/15Z 30/16Z 30/17Z 30/18Z 30/19Z 30/20Z 30/21Z 30/22Z 30/23Z 31/00Z 31/01Z
Temp80 82 84 87 88 89 91 93 89 86 85 73 73
Dewpt75 74 74 73 71 70 69 71 74 73 73 71 71
Altim30.05 30.04 30.04 30.03 30.02 30.00 29.98 29.97 29.95 29.95 29.94 30.02 30.02
VIS10 10 10 10 10 10 10 10 10 10 10 1 6
CIG-- 16 24 32 43 55 110 75 50 55 48 30 38
CoverSCTBKNBKNBKNBKNBKNBKNBKNBKNBKNBKNOVCOVC
FltCatVFRMVFRMVFRVFRVFRVFRVFRVFRVFRVFRVFRIFRVFR
WX--------------------TS+TSRA BR-TSRA BR
WDir16019021002502900011015015040180
WSpd8 8 8 5 7 5 0 3 10 13 9 19 6
WGst-- -- -- -- -- -- -- -- -- -- -- -- --
Raw hourly METARs
KMCO 301253Z 16008KT 10SM FEW010 FEW050 SCT300 27/24 A3005 RMK AO2 SLP174 T02670239 $
KMCO 301353Z 19008KT 10SM BKN016 BKN023 BKN300 28/23 A3004 RMK AO2 SLP172 T02780233 $
KMCO 301453Z 21008KT 10SM SCT018 BKN024 BKN250 29/23 A3004 RMK AO2 SLP171 T02890233 58002 $
KMCO 301553Z VRB05KT 10SM SCT027 BKN032 BKN250 31/23 A3003 RMK AO2 SLP168 T03060228 $
KMCO 301653Z 25007KT 10SM SCT033 BKN043 BKN250 31/22 A3002 RMK AO2 SLP164 T03110217 $
KMCO 301753Z 29005KT 10SM SCT042 BKN055 BKN250 32/21 A3000 RMK AO2 SLP157 T03170211 10322 20244 58014 $
KMCO 301853Z 00000KT 10SM SCT047 BKN110 BKN250 33/21 A2998 RMK AO2 SLP151 T03280206 $
KMCO 301953Z VRB03KT 10SM SCT049 BKN075 BKN250 34/22 A2997 RMK AO2 SLP146 T03390217 $
KMCO 302053Z 11010KT 10SM BKN050 BKN250 32/23 A2995 RMK AO2 LTG DSNT S SLP141 T03170233 56016 $
KMCO 302205Z 15013KT 10SM BKN055CB BKN110 BKN250 30/23 A2995 RMK AO2 LTG DSNT NE AND S TSE2159 CB S MOV SW AND DSNT NE T03000228 $
KMCO 302253Z 15009KT 10SM TS BKN048CB BKN110 BKN250 29/23 A2994 RMK AO2 LTG DSNT NW-E TSE2159E38B41 SLP136 OCNL LTGICCG OHD AND DSNT N-E TS OHD MOV S AND DSNT N-E T02940228 $
KMCO 310005Z 04019KT 1SM R35L/4500V6000FT +TSRA BR SCT011 BKN030CB OVC035 23/22 A3002 RMK AO2 TWR VIS 2 LTG DSNT ALQDS FRQ LTGICCG ALQDS TS ALQDS MOV SE P0041 T02280217 $
KMCO 310053Z 18006KT 6SM -TSRA BR SCT020 OVC038CB 23/22 A3002 RMK AO2 LTG DSNT SE-W SLP163 CONS LTGICCG ALQDS TS ALQDS MOV SE P0116 T02280217 $



Page loaded:  01:44 UTC  |   06:44 PM Pacific  |   07:44 PM Mountain  |   08:44 PM Central  |   09:44 PM Eastern

 

ADVISORIES

FORECASTS

FORECASTS

OBSERVATIONS

USER TOOLS

ABOUT US